Time;durP1;ratioP1;P1;durP2;ratioP2;P2;SDS_P1;SDS_P2;PMS_P1;PMS_P2;Temp;Humidity;BMP_temperature;BMP_pressure;BME280_temperature;BME280_humidity;BME280_pressure;Samples;Min_cycle;Max_cycle;Signal;HPM_P1;HPM_P2
2021/04/06 00:02:17;;;;;;;14.05;3.08;;;3.90;89.00;;;;;;5033387;28;20116;-69
2021/04/06 00:04:47;;;;;;;18.35;5.78;;;4.00;88.80;;;;;;5034017;28;20378;-67
2021/04/06 00:07:16;;;;;;;9.15;2.70;;;4.10;89.00;;;;;;5034886;28;20025;-70
2021/04/06 00:09:46;;;;;;;17.50;3.80;;;4.00;89.20;;;;;;5034300;28;20041;-70
2021/04/06 00:12:15;;;;;;;9.35;2.17;;;3.90;89.90;;;;;;5034961;28;20469;-69
2021/04/06 00:14:42;;;;;;;33.25;18.90;;;3.80;90.30;;;;;;5034554;28;20026;-68
2021/04/06 00:17:09;;;;;;;10.65;2.55;;;3.80;90.70;;;;;;5033812;28;20053;-66
2021/04/06 00:19:39;;;;;;;17.58;9.55;;;3.60;91.10;;;;;;5034575;28;20079;-68
2021/04/06 00:22:05;;;;;;;11.32;2.72;;;3.50;91.40;;;;;;5034210;28;20485;-67
2021/04/06 00:24:33;;;;;;;33.78;28.27;;;3.40;91.70;;;;;;5033940;28;20029;-68
2021/04/06 00:27:29;;;;;;;12.85;2.80;;;3.40;92.00;;;;;;5034221;28;20086;-68
2021/04/06 00:29:58;;;;;;;25.65;22.30;;;3.30;92.20;;;;;;5033336;28;20112;-66
2021/04/06 00:32:26;;;;;;;17.52;2.80;;;3.20;92.40;;;;;;5033923;28;20066;-68
2021/04/06 00:34:55;;;;;;;14.15;2.70;;;3.10;92.60;;;;;;5034017;28;20470;-68
2021/04/06 00:37:21;;;;;;;11.40;2.45;;;3.10;92.80;;;;;;5034233;28;20056;-66
2021/04/06 00:39:47;;;;;;;13.82;2.80;;;3.10;93.00;;;;;;5032105;28;20045;-70
2021/04/06 00:42:19;;;;;;;11.45;2.33;;;3.00;93.00;;;;;;5034039;28;20022;-71
2021/04/06 00:44:51;;;;;;;15.68;2.55;;;3.10;93.20;;;;;;5031935;28;20033;-68
2021/04/06 00:47:27;;;;;;;12.35;3.53;;;3.20;93.30;;;;;;5034196;28;20025;-68
2021/04/06 00:49:55;;;;;;;12.20;2.63;;;3.30;93.20;;;;;;5032808;28;20034;-69
2021/04/06 00:52:22;;;;;;;14.25;3.28;;;3.30;93.10;;;;;;5033340;28;20013;-69
2021/04/06 00:54:56;;;;;;;18.13;3.75;;;3.40;93.00;;;;;;5033588;28;20489;-70
2021/04/06 00:57:30;;;;;;;18.60;3.55;;;3.40;93.00;;;;;;5032736;28;20466;-70
2021/04/06 01:00:26;;;;;;;20.80;3.53;;;3.50;93.10;;;;;;5031705;28;20470;-68
2021/04/06 01:03:10;;;;;;;17.23;3.38;;;3.60;93.10;;;;;;5033416;28;20083;-69
2021/04/06 01:05:58;;;;;;;15.82;2.88;;;3.60;93.00;;;;;;5033709;28;20074;-70
2021/04/06 01:08:32;;;;;;;13.30;4.95;;;3.60;93.00;;;;;;5033646;28;20355;-68
2021/04/06 01:11:09;;;;;;;14.77;3.22;;;3.60;92.80;;;;;;5090387;27;20363;-70
2021/04/06 01:13:35;;;;;;;16.88;4.22;;;3.60;92.80;;;;;;5089791;28;20031;-70
2021/04/06 01:16:02;;;;;;;15.18;3.17;;;3.50;92.80;;;;;;5090123;28;20046;-71
2021/04/06 01:18:28;;;;;;;21.17;4.40;;;3.50;92.90;;;;;;5090323;28;20532;-67
2021/04/06 01:20:55;;;;;;;23.98;6.63;;;3.40;92.90;;;;;;5088110;28;20111;-66
2021/04/06 01:23:21;;;;;;;17.90;3.92;;;3.30;93.00;;;;;;5090380;28;20116;-70
2021/04/06 01:25:53;;;;;;;14.60;3.63;;;3.30;93.10;;;;;;5088545;28;20028;-71
2021/04/06 01:28:18;;;;;;;19.85;3.75;;;3.20;93.10;;;;;;5089692;28;20052;-69
2021/04/06 01:30:49;;;;;;;19.23;4.20;;;3.20;93.30;;;;;;5088741;28;20070;-69
2021/04/06 01:33:17;;;;;;;15.52;3.22;;;3.30;93.40;;;;;;5090073;28;20052;-70
2021/04/06 01:35:45;;;;;;;19.98;4.20;;;3.30;93.30;;;;;;5089476;28;20096;-70
2021/04/06 01:38:12;;;;;;;17.88;3.72;;;3.40;93.30;;;;;;5089852;28;20028;-70
2021/04/06 01:40:38;;;;;;;12.60;3.40;;;3.40;93.20;;;;;;5088610;28;20040;-72
2021/04/06 01:43:05;;;;;;;23.40;6.55;;;3.40;93.10;;;;;;5088696;28;20435;-70
2021/04/06 01:45:32;;;;;;;21.15;4.38;;;3.40;93.10;;;;;;5088405;28;20024;-70
2021/04/06 01:47:58;;;;;;;22.92;4.85;;;3.20;93.00;;;;;;5089344;28;20024;-69
2021/04/06 01:50:24;;;;;;;20.88;4.32;;;3.20;93.10;;;;;;5088829;28;20530;-68
2021/04/06 01:52:52;;;;;;;22.90;3.60;;;3.10;93.20;;;;;;5088060;28;20016;-70
2021/04/06 01:55:29;;;;;;;18.15;3.92;;;3.10;93.30;;;;;;5089105;28;20085;-70
2021/04/06 01:57:55;;;;;;;16.10;3.88;;;3.10;93.30;;;;;;5088035;28;20103;-70
2021/04/06 02:00:42;;;;;;;24.10;4.22;;;3.20;93.30;;;;;;5088166;28;20059;-70
2021/04/06 02:03:10;;;;;;;17.00;3.80;;;3.20;93.20;;;;;;5088460;28;20016;-70
2021/04/06 02:05:37;;;;;;;19.17;4.65;;;3.30;93.10;;;;;;5089470;28;20031;-70
2021/04/06 02:08:12;;;;;;;19.23;3.28;;;3.30;93.00;;;;;;5089072;28;20020;-69
2021/04/06 02:10:38;;;;;;;19.70;4.63;;;3.30;93.00;;;;;;5088414;28;20048;-68
2021/04/06 02:13:11;;;;;;;17.15;3.55;;;3.30;93.00;;;;;;5088807;28;20024;-71
2021/04/06 02:15:59;;;;;;;16.17;3.65;;;3.30;93.10;;;;;;5089223;28;20420;-67
2021/04/06 02:18:30;;;;;;;13.52;3.47;;;3.30;92.80;;;;;;5087196;28;20020;-70
2021/04/06 02:21:00;;;;;;;22.00;5.38;;;3.30;92.70;;;;;;5082677;28;20484;-70
2021/04/06 02:23:35;;;;;;;15.70;3.40;;;3.30;92.60;;;;;;5074827;28;20029;-70
2021/04/06 02:26:00;;;;;;;23.83;5.72;;;3.20;92.50;;;;;;5075225;28;20025;-69
2021/04/06 02:28:26;;;;;;;17.35;5.82;;;3.20;92.50;;;;;;5075678;28;20377;-68
2021/04/06 02:30:52;;;;;;;25.83;7.90;;;3.20;92.60;;;;;;5074363;28;20036;-69
2021/04/06 02:33:22;;;;;;;27.17;6.60;;;3.10;92.60;;;;;;5075339;28;20016;-70
2021/04/06 02:35:57;;;;;;;17.10;4.90;;;3.00;92.60;;;;;;5075194;28;20095;-68
2021/04/06 02:38:23;;;;;;;21.92;8.52;;;3.00;92.60;;;;;;5074800;28;20052;-69
2021/04/06 02:40:49;;;;;;;20.55;5.65;;;3.00;92.70;;;;;;5075188;28;20477;-68
2021/04/06 02:43:14;;;;;;;25.33;3.97;;;2.90;92.60;;;;;;5075266;28;20560;-70
2021/04/06 02:45:40;;;;;;;14.77;2.92;;;2.90;92.70;;;;;;5074952;28;20024;-70
2021/04/06 02:48:14;;;;;;;21.23;6.90;;;2.90;92.80;;;;;;5074876;28;20024;-67
2021/04/06 02:50:41;;;;;;;17.20;6.47;;;2.80;92.70;;;;;;5074977;28;20033;-70
2021/04/06 02:53:09;;;;;;;11.60;4.32;;;2.80;92.70;;;;;;5073946;28;20023;-67
2021/04/06 02:55:36;;;;;;;22.13;7.25;;;2.80;92.40;;;;;;5075044;28;20112;-69
2021/04/06 02:58:12;;;;;;;19.60;4.43;;;2.80;92.40;;;;;;5074652;28;20017;-69
2021/04/06 03:00:38;;;;;;;21.08;7.45;;;2.80;92.20;;;;;;5074304;28;20533;-69
2021/04/06 03:03:17;;;;;;;16.65;3.17;;;2.80;92.10;;;;;;5074581;28;20033;-68
2021/04/06 03:05:42;;;;;;;22.13;5.93;;;2.90;91.90;;;;;;5074278;28;20396;-68
2021/04/06 03:08:08;;;;;;;14.40;3.17;;;2.90;91.60;;;;;;5074733;28;20020;-72
2021/04/06 03:10:35;;;;;;;34.03;19.65;;;3.00;91.60;;;;;;5073253;28;20102;-69
2021/04/06 03:13:10;;;;;;;14.60;7.75;;;3.00;91.50;;;;;;5073691;28;20024;-67
2021/04/06 03:15:38;;;;;;;20.85;13.27;;;3.10;91.00;;;;;;5074630;28;20023;-70
2021/04/06 03:18:06;;;;;;;12.88;2.20;;;3.10;91.20;;;;;;5074306;28;20532;-70
2021/04/06 03:20:37;;;;;;;9.40;2.33;;;3.10;91.20;;;;;;5074005;28;20031;-68
2021/04/06 03:23:05;;;;;;;12.50;3.95;;;3.00;91.40;;;;;;5074246;28;20384;-67
2021/04/06 03:25:35;;;;;;;13.95;2.90;;;3.00;91.50;;;;;;5074515;28;20020;-69
2021/04/06 03:28:09;;;;;;;10.77;2.25;;;2.90;91.50;;;;;;5073376;28;20108;-71
2021/04/06 03:30:36;;;;;;;12.60;2.63;;;2.90;91.70;;;;;;5074181;28;20042;-71
2021/04/06 03:33:07;;;;;;;9.13;2.72;;;2.90;91.90;;;;;;5072875;28;20021;-70
2021/04/06 03:35:34;;;;;;;16.83;10.43;;;2.90;92.00;;;;;;5073597;28;20017;-70
2021/04/06 03:38:02;;;;;;;11.43;2.63;;;2.80;91.80;;;;;;5073899;28;20098;-70
2021/04/06 03:40:35;;;;;;;12.45;6.70;;;2.70;91.80;;;;;;5072852;28;20028;-70
2021/04/06 03:43:18;;;;;;;8.90;1.88;;;2.60;92.00;;;;;;5073751;28;20529;-70
2021/04/06 03:46:02;;;;;;;6.18;2.00;;;2.40;92.10;;;;;;5074004;28;20419;-68
2021/04/06 03:48:29;;;;;;;15.73;5.45;;;2.30;92.20;;;;;;5073421;28;20024;-70
2021/04/06 03:50:56;;;;;;;12.18;2.67;;;2.30;92.30;;;;;;5073527;28;20055;-70
2021/04/06 03:53:23;;;;;;;9.98;3.35;;;2.20;92.50;;;;;;5073921;28;20032;-70
2021/04/06 03:56:03;;;;;;;7.25;1.83;;;2.20;92.60;;;;;;5072921;28;20055;-68
2021/04/06 03:58:33;;;;;;;12.80;7.97;;;2.10;92.70;;;;;;5073812;28;20044;-69
2021/04/06 04:00:59;;;;;;;15.98;2.70;;;2.10;92.80;;;;;;5073403;28;20016;-70
2021/04/06 04:03:25;;;;;;;6.07;2.88;;;2.10;92.90;;;;;;5071769;28;20024;-68
2021/04/06 04:05:51;;;;;;;11.70;2.25;;;2.20;93.00;;;;;;5073429;28;20035;-67
2021/04/06 04:08:16;;;;;;;14.00;8.05;;;2.20;93.00;;;;;;5073577;28;20029;-66
2021/04/06 04:10:42;;;;;;;7.82;2.13;;;2.20;93.10;;;;;;5072637;28;20087;-67
2021/04/06 04:13:07;;;;;;;9.20;2.70;;;2.20;93.10;;;;;;5073054;28;20020;-67
2021/04/06 04:15:33;;;;;;;7.47;3.53;;;2.10;93.10;;;;;;5073523;28;20024;-67
2021/04/06 04:17:58;;;;;;;18.02;8.50;;;2.20;93.30;;;;;;5071303;28;20477;-67
2021/04/06 04:20:24;;;;;;;20.65;10.82;;;2.20;93.50;;;;;;5073514;28;20476;-70
2021/04/06 04:22:51;;;;;;;12.77;3.63;;;2.20;93.50;;;;;;5072302;28;20035;-68
2021/04/06 04:25:18;;;;;;;14.30;4.68;;;2.20;93.50;;;;;;5073332;28;20016;-68
2021/04/06 04:27:44;;;;;;;20.23;18.17;;;2.20;93.60;;;;;;5073132;28;20048;-66
2021/04/06 04:30:12;;;;;;;8.88;3.28;;;2.20;93.80;;;;;;5071101;28;20039;-68
2021/04/06 04:32:38;;;;;;;9.55;3.47;;;2.20;93.80;;;;;;5071728;28;20028;-68
2021/04/06 04:35:05;;;;;;;9.57;2.90;;;2.20;93.80;;;;;;5071764;28;20036;-68
2021/04/06 04:37:31;;;;;;;9.15;2.38;;;2.30;93.70;;;;;;5072559;28;20554;-67
2021/04/06 04:39:57;;;;;;;12.15;6.32;;;2.30;93.60;;;;;;5071335;28;20025;-71
2021/04/06 04:42:22;;;;;;;10.02;2.10;;;2.40;93.50;;;;;;5069851;28;20797;-67
2021/04/06 04:44:48;;;;;;;17.08;13.85;;;2.50;93.80;;;;;;5068236;28;20032;-72
2021/04/06 04:47:14;;;;;;;18.70;3.42;;;2.60;93.50;;;;;;5066364;28;20028;-72
2021/04/06 04:49:39;;;;;;;12.10;3.60;;;2.70;93.40;;;;;;5071636;28;20397;-72
2021/04/06 04:52:05;;;;;;;8.50;3.97;;;2.80;93.30;;;;;;5071654;28;20024;-67
2021/04/06 04:54:32;;;;;;;15.07;3.70;;;2.80;93.20;;;;;;5071796;28;20033;-69
2021/04/06 04:56:57;;;;;;;6.32;2.15;;;2.80;93.20;;;;;;5070145;28;20009;-69
2021/04/06 04:59:23;;;;;;;12.40;5.43;;;2.80;93.20;;;;;;5072484;28;20020;-70
2021/04/06 05:01:49;;;;;;;8.32;2.22;;;2.70;93.20;;;;;;5070817;28;20028;-70
2021/04/06 05:04:14;;;;;;;13.65;2.80;;;2.80;93.40;;;;;;5071788;28;20212;-65
2021/04/06 05:06:40;;;;;;;11.20;5.80;;;2.90;93.40;;;;;;5072502;28;20400;-70
2021/04/06 05:09:06;;;;;;;10.05;2.67;;;3.00;93.30;;;;;;5071650;28;20045;-66
2021/04/06 05:11:31;;;;;;;13.10;3.25;;;3.00;93.00;;;;;;5071295;28;20114;-69
2021/04/06 05:13:57;;;;;;;7.57;2.70;;;3.10;92.90;;;;;;5071838;28;20020;-67
2021/04/06 05:16:23;;;;;;;8.10;4.05;;;3.00;92.80;;;;;;5071094;28;20028;-69
2021/04/06 05:18:49;;;;;;;9.90;3.10;;;3.00;92.80;;;;;;5071657;28;20021;-71
2021/04/06 05:21:14;;;;;;;10.43;3.10;;;3.00;92.80;;;;;;5071827;28;20020;-67
2021/04/06 05:23:41;;;;;;;10.63;2.75;;;3.00;92.90;;;;;;5071162;28;20045;-67
2021/04/06 05:26:07;;;;;;;7.78;2.72;;;3.10;93.00;;;;;;5069922;28;20021;-69
2021/04/06 05:28:32;;;;;;;10.23;3.08;;;3.10;92.80;;;;;;5072155;28;20425;-68
2021/04/06 05:30:58;;;;;;;14.75;3.67;;;3.10;92.80;;;;;;5071192;28;20039;-70
2021/04/06 05:33:24;;;;;;;10.23;2.33;;;3.10;92.80;;;;;;5070061;28;20016;-68
2021/04/06 05:35:53;;;;;;;10.38;2.50;;;3.10;92.80;;;;;;5071644;28;20443;-68
2021/04/06 05:38:18;;;;;;;11.00;2.92;;;3.00;92.70;;;;;;5070725;28;20016;-71
2021/04/06 05:40:44;;;;;;;10.50;3.03;;;3.00;92.70;;;;;;5071438;28;20024;-71
2021/04/06 05:43:14;;;;;;;14.30;3.13;;;3.00;92.70;;;;;;5071723;28;20108;-69
2021/04/06 05:45:46;;;;;;;12.52;2.95;;;2.90;92.80;;;;;;5069789;28;20507;-71
2021/04/06 05:48:15;;;;;;;7.95;2.35;;;2.90;92.80;;;;;;5070390;28;20040;-71
2021/04/06 05:50:48;;;;;;;9.63;2.42;;;2.90;92.90;;;;;;5071719;28;20044;-71
2021/04/06 05:53:14;;;;;;;12.85;3.30;;;2.90;92.80;;;;;;5070542;28;20145;-70
2021/04/06 05:55:40;;;;;;;7.07;2.40;;;2.90;92.80;;;;;;5071914;28;20033;-72
2021/04/06 05:58:06;;;;;;;10.88;2.60;;;3.00;92.70;;;;;;5075069;28;20012;-68
2021/04/06 06:00:31;;;;;;;9.75;2.53;;;2.90;92.60;;;;;;5073511;28;20024;-68
2021/04/06 06:02:58;;;;;;;9.90;2.65;;;3.00;92.70;;;;;;5074892;28;20028;-69
2021/04/06 06:05:24;;;;;;;8.68;3.03;;;3.00;92.70;;;;;;5075593;28;20020;-70
2021/04/06 06:07:49;;;;;;;7.53;2.25;;;3.00;92.60;;;;;;5073321;28;20035;-67
2021/04/06 06:10:29;;;;;;;13.07;3.03;;;3.10;92.50;;;;;;5075550;28;20456;-68
2021/04/06 06:13:13;;;;;;;6.07;2.88;;;3.20;92.50;;;;;;5074248;28;20035;-69
2021/04/06 06:15:39;;;;;;;9.48;2.20;;;3.30;92.40;;;;;;5065231;28;20055;-68
2021/04/06 06:18:05;;;;;;;10.10;2.33;;;3.40;92.10;;;;;;5073799;28;20452;-70
2021/04/06 06:20:31;;;;;;;14.10;3.95;;;3.50;91.90;;;;;;5074019;28;20039;-67
2021/04/06 06:23:21;;;;;;;11.80;3.60;;;3.50;91.90;;;;;;5073377;28;20021;-69
2021/04/06 06:26:11;;;;;;;11.68;3.35;;;3.40;91.90;;;;;;5073655;28;20035;-70
2021/04/06 06:28:37;;;;;;;15.05;3.03;;;3.40;91.70;;;;;;5074264;28;20465;-72
2021/04/06 15:45:35;;;;;;;5.80;1.55;;;7.30;63.90;;;;;;4926972;28;20056;-70
2021/04/06 15:48:02;;;;;;;3.28;1.52;;;7.00;66.00;;;;;;4936448;28;20031;-69
2021/04/06 15:50:32;;;;;;;13.30;9.07;;;6.30;70.70;;;;;;4954063;28;20031;-68
2021/04/06 15:52:58;;;;;;;4.90;1.70;;;5.90;73.80;;;;;;4935453;29;20023;-72
2021/04/06 15:55:24;;;;;;;3.38;2.08;;;5.50;76.20;;;;;;4935881;29;20042;-71
2021/04/06 15:57:51;;;;;;;8.52;1.27;;;5.20;78.00;;;;;;4935510;29;20495;-72
2021/04/06 16:00:23;;;;;;;10.00;1.80;;;5.10;79.60;;;;;;4933646;29;20504;-70
2021/04/06 16:02:49;;;;;;;3.47;1.17;;;5.30;80.70;;;;;;4938058;29;20079;-71
2021/04/06 16:05:22;;;;;;;4.65;1.60;;;5.30;80.60;;;;;;4935347;29;20572;-72
2021/04/06 16:07:48;;;;;;;7.18;1.85;;;5.20;80.50;;;;;;4935597;29;20030;-72
2021/04/06 16:10:14;;;;;;;6.35;2.60;;;5.10;81.10;;;;;;4935388;29;20031;-71
2021/04/06 16:12:40;;;;;;;17.63;8.10;;;4.90;81.90;;;;;;4934784;29;20035;-70
2021/04/06 16:15:06;;;;;;;8.27;3.58;;;4.80;82.80;;;;;;4935361;29;20044;-71
2021/04/06 16:17:32;;;;;;;22.80;11.65;;;4.60;84.00;;;;;;4935208;29;20110;-70
2021/04/06 16:20:01;;;;;;;10.00;4.35;;;4.50;85.40;;;;;;4934524;29;20099;-69
2021/04/06 16:22:30;;;;;;;10.15;5.45;;;4.50;86.20;;;;;;4935550;29;20031;-68
2021/04/06 16:24:56;;;;;;;4.05;3.30;;;4.60;87.20;;;;;;4935310;29;20031;-71
2021/04/06 16:27:22;;;;;;;7.05;5.65;;;4.60;87.30;;;;;;4935292;28;20369;-67
2021/04/06 16:29:47;;;;;;;5.30;1.75;;;4.60;86.90;;;;;;4934929;29;20026;-70
2021/04/06 16:32:17;;;;;;;6.15;5.25;;;4.60;87.10;;;;;;4935371;29;20083;-71
2021/04/06 16:34:43;;;;;;;18.15;7.68;;;4.70;87.50;;;;;;4934922;29;20078;-71
2021/04/06 16:37:09;;;;;;;9.63;4.65;;;4.90;87.00;;;;;;4933802;29;20066;-70
2021/04/06 16:39:35;;;;;;;5.95;2.55;;;5.10;85.90;;;;;;4944634;28;20063;-70
2021/04/06 16:42:00;;;;;;;7.57;2.15;;;5.40;85.00;;;;;;4953248;29;20016;-71
2021/04/06 16:44:26;;;;;;;7.05;2.40;;;5.50;84.10;;;;;;4984532;28;20043;-70
2021/04/06 16:46:52;;;;;;;5.22;2.00;;;5.70;83.90;;;;;;4948636;29;20036;-70
2021/04/06 16:49:17;;;;;;;6.80;2.78;;;5.80;83.50;;;;;;4937714;29;20055;-70
2021/04/06 16:51:43;;;;;;;8.40;1.92;;;5.70;82.90;;;;;;4934906;29;20023;-69
2021/04/06 16:54:10;;;;;;;5.65;2.00;;;5.60;82.70;;;;;;4935161;29;20443;-69
2021/04/06 16:56:35;;;;;;;8.88;2.45;;;5.50;83.00;;;;;;4934155;29;20024;-67
2021/04/06 16:59:01;;;;;;;10.27;2.72;;;5.30;83.40;;;;;;4949718;29;20464;-68
2021/04/06 17:01:26;;;;;;;5.93;2.72;;;5.20;83.50;;;;;;4934166;29;20094;-69
2021/04/06 17:03:52;;;;;;;8.70;2.55;;;5.10;83.80;;;;;;4934726;29;20036;-69
2021/04/06 17:06:22;;;;;;;9.48;4.25;;;5.00;84.20;;;;;;4935074;29;20024;-69
2021/04/06 17:08:48;;;;;;;7.65;1.95;;;5.00;84.10;;;;;;4934395;29;20047;-66
2021/04/06 17:11:13;;;;;;;4.43;2.05;;;4.90;84.60;;;;;;4930868;29;20528;-66
2021/04/06 17:13:39;;;;;;;8.27;2.10;;;4.80;84.30;;;;;;4931650;29;20059;-69
2021/04/06 17:16:05;;;;;;;11.10;2.90;;;4.80;84.40;;;;;;4929233;29;20396;-69
2021/04/06 17:18:31;;;;;;;4.22;1.60;;;4.70;84.10;;;;;;4930443;29;20028;-69
2021/04/06 17:20:56;;;;;;;7.57;2.45;;;4.70;83.30;;;;;;4931288;29;20040;-69
2021/04/06 17:23:22;;;;;;;58.80;30.38;;;4.70;82.40;;;;;;4930611;29;20024;-68
2021/04/06 17:25:49;;;;;;;8.73;2.10;;;4.50;83.40;;;;;;4931270;29;20463;-69
2021/04/06 17:28:14;;;;;;;6.25;1.92;;;4.30;83.30;;;;;;4931477;29;20028;-67
2021/04/06 17:30:44;;;;;;;4.90;1.48;;;4.00;83.80;;;;;;4929987;29;20043;-68
2021/04/06 17:33:16;;;;;;;3.15;1.33;;;3.90;84.60;;;;;;4931343;29;20042;-69
2021/04/06 17:35:42;;;;;;;8.77;1.80;;;3.70;84.40;;;;;;4931435;29;20032;-69
2021/04/06 17:38:08;;;;;;;8.48;6.85;;;3.70;85.00;;;;;;4933449;28;20023;-69
2021/04/06 17:40:35;;;;;;;6.25;4.53;;;3.70;85.10;;;;;;4934071;29;20476;-68
2021/04/06 17:43:03;;;;;;;8.75;4.80;;;3.60;83.70;;;;;;4930776;29;20034;-67
2021/04/06 17:45:30;;;;;;;10.48;3.67;;;3.60;83.60;;;;;;4930272;29;20052;-68
2021/04/06 17:47:56;;;;;;;25.35;12.65;;;3.60;84.40;;;;;;4930956;29;20024;-68
2021/04/06 17:50:23;;;;;;;8.00;2.97;;;3.60;84.00;;;;;;4929683;29;20043;-68
2021/04/06 17:52:49;;;;;;;15.32;4.72;;;3.50;82.90;;;;;;4931978;29;20051;-69
2021/04/06 17:55:16;;;;;;;8.60;2.95;;;3.40;83.20;;;;;;4933678;29;20480;-68
2021/04/06 17:57:43;;;;;;;10.68;7.65;;;3.40;84.30;;;;;;4934157;29;20074;-68
2021/04/06 18:00:22;;;;;;;72.07;45.03;;;3.30;85.50;;;;;;4934333;29;20024;-68
2021/04/06 18:02:48;;;;;;;9.10;1.92;;;3.20;85.30;;;;;;4934247;29;20114;-68
2021/04/06 18:05:15;;;;;;;37.53;33.60;;;3.10;85.80;;;;;;4965400;28;20051;-69
2021/04/06 18:07:43;;;;;;;9.10;2.20;;;3.00;86.60;;;;;;4933850;29;20020;-68
2021/04/06 18:10:10;;;;;;;7.72;3.75;;;3.00;87.40;;;;;;4934234;29;20043;-69
2021/04/06 18:12:36;;;;;;;9.52;2.25;;;3.00;87.30;;;;;;4934158;29;20035;-69
2021/04/06 18:15:02;;;;;;;5.47;2.13;;;2.90;87.30;;;;;;4932224;29;20142;-69
2021/04/06 18:17:27;;;;;;;9.50;3.88;;;2.90;87.80;;;;;;4934205;29;20032;-69
2021/04/06 18:19:53;;;;;;;8.15;2.00;;;2.90;88.30;;;;;;4964299;28;20503;-68
2021/04/06 18:22:18;;;;;;;5.80;3.22;;;2.80;88.60;;;;;;4965016;28;20038;-69
2021/04/06 18:24:44;;;;;;;15.18;5.53;;;2.80;88.90;;;;;;4933928;29;20032;-68
2021/04/06 18:27:10;;;;;;;24.60;12.00;;;2.70;89.60;;;;;;4931982;29;20095;-67
2021/04/06 18:29:35;;;;;;;16.58;8.65;;;2.80;90.30;;;;;;4934286;29;20534;-67
2021/04/06 18:32:02;;;;;;;13.45;4.32;;;2.80;90.10;;;;;;4964375;28;20586;-68
2021/04/06 18:34:29;;;;;;;10.40;3.60;;;2.80;90.00;;;;;;4933536;29;20046;-69
2021/04/06 18:36:55;;;;;;;6.28;2.08;;;2.80;90.40;;;;;;4933801;29;20046;-69
2021/04/06 18:39:21;;;;;;;6.05;2.22;;;2.80;90.30;;;;;;4934059;29;20428;-68
2021/04/06 18:41:49;;;;;;;5.93;2.75;;;2.80;90.30;;;;;;4932908;29;20492;-68
2021/04/06 18:44:14;;;;;;;8.55;2.22;;;2.80;90.30;;;;;;4933831;29;20063;-69
2021/04/06 18:46:40;;;;;;;10.80;3.10;;;2.80;90.40;;;;;;4934186;29;20126;-69
2021/04/06 18:49:06;;;;;;;7.70;2.55;;;2.80;90.50;;;;;;4932356;29;20032;-68
2021/04/06 18:51:36;;;;;;;11.13;2.95;;;2.90;90.70;;;;;;4933295;29;20491;-68
2021/04/06 18:54:02;;;;;;;8.50;2.65;;;2.90;90.50;;;;;;4963879;28;20028;-67
2021/04/06 18:56:28;;;;;;;10.35;3.08;;;3.10;90.50;;;;;;4933927;29;20028;-69
2021/04/06 18:58:54;;;;;;;22.67;20.25;;;3.20;90.50;;;;;;4932155;29;20075;-69
2021/04/06 19:01:19;;;;;;;6.50;4.90;;;3.40;90.40;;;;;;4933316;29;20435;-69
2021/04/06 19:03:46;;;;;;;26.35;24.00;;;3.40;90.30;;;;;;4932789;29;20024;-69
2021/04/06 19:06:12;;;;;;;28.63;20.27;;;3.30;90.70;;;;;;4933843;29;20650;-71
2021/04/06 19:08:37;;;;;;;6.30;1.80;;;3.20;91.20;;;;;;4964091;28;20032;-70
2021/04/06 19:11:03;;;;;;;10.13;4.78;;;3.00;91.40;;;;;;4963388;28;20067;-70
2021/04/06 19:13:29;;;;;;;11.20;5.22;;;3.00;91.70;;;;;;4932245;29;20750;-70
2021/04/06 19:15:57;;;;;;;7.07;2.17;;;3.00;91.70;;;;;;4932409;29;20036;-72
2021/04/06 19:18:26;;;;;;;9.57;2.72;;;2.90;91.70;;;;;;4933595;29;20476;-73
2021/04/06 19:20:55;;;;;;;6.13;4.00;;;2.90;91.60;;;;;;4933077;29;20036;-71
2021/04/06 19:23:22;;;;;;;7.50;3.53;;;3.00;91.60;;;;;;4930910;29;20031;-70
2021/04/06 19:25:48;;;;;;;8.27;2.17;;;3.00;91.70;;;;;;4933133;29;20023;-70
2021/04/06 19:28:14;;;;;;;5.88;2.33;;;3.00;91.50;;;;;;4931976;29;20472;-71
2021/04/06 19:30:40;;;;;;;10.80;5.30;;;3.00;91.40;;;;;;4933169;29;20036;-70
2021/04/06 19:33:07;;;;;;;8.60;3.35;;;2.90;91.50;;;;;;4933743;29;20364;-68
2021/04/06 19:35:34;;;;;;;8.85;4.43;;;2.80;91.60;;;;;;4933970;29;20113;-72
2021/04/06 19:38:00;;;;;;;6.88;2.65;;;2.80;91.70;;;;;;4931815;29;20059;-68
2021/04/06 19:40:27;;;;;;;10.32;3.78;;;2.70;91.90;;;;;;4933620;29;20126;-71
2021/04/06 19:42:53;;;;;;;6.47;3.17;;;2.60;91.90;;;;;;4933452;29;20381;-70
2021/04/06 19:45:20;;;;;;;7.15;2.22;;;2.70;92.00;;;;;;4932366;29;20052;-70
2021/04/06 19:47:51;;;;;;;6.13;2.00;;;2.70;92.00;;;;;;4933250;29;20043;-71
2021/04/06 19:50:17;;;;;;;8.70;2.95;;;2.70;92.00;;;;;;4932957;28;20440;-72
2021/04/06 19:52:43;;;;;;;8.40;2.50;;;2.80;92.10;;;;;;4932984;29;20046;-72
2021/04/06 19:55:12;;;;;;;6.68;5.13;;;2.70;92.10;;;;;;4932016;29;20031;-70
2021/04/06 19:57:37;;;;;;;4.50;2.13;;;2.80;92.10;;;;;;4932688;29;20077;-71
2021/04/06 20:00:19;;;;;;;5.72;2.10;;;2.70;92.10;;;;;;4932868;29;20515;-75
2021/04/06 20:02:45;;;;;;;21.02;15.75;;;2.70;92.30;;;;;;4932395;29;20059;-72
2021/04/06 20:05:13;;;;;;;7.32;4.80;;;2.70;92.20;;;;;;4932721;29;20031;-74
2021/04/06 20:07:39;;;;;;;4.43;3.17;;;2.70;92.20;;;;;;4933227;29;20034;-74
2021/04/06 20:10:07;;;;;;;8.90;3.75;;;2.60;92.40;;;;;;4932730;29;20042;-75
2021/04/06 20:12:34;;;;;;;5.40;1.88;;;2.60;92.40;;;;;;4931424;29;20055;-73
2021/04/06 20:15:01;;;;;;;6.55;2.88;;;2.60;92.50;;;;;;4931362;29;20399;-72
2021/04/06 20:17:27;;;;;;;4.43;2.50;;;2.50;92.50;;;;;;4932440;29;20078;-69
2021/04/06 20:19:53;;;;;;;12.57;11.20;;;2.40;92.60;;;;;;4932303;29;20439;-75
2021/04/06 20:22:19;;;;;;;8.88;5.60;;;2.40;92.70;;;;;;4933069;29;20041;-66
2021/04/06 20:24:44;;;;;;;3.78;2.88;;;2.40;92.70;;;;;;4932275;29;20604;-68
2021/04/06 20:27:10;;;;;;;7.38;2.47;;;2.30;92.60;;;;;;4931968;29;20035;-73
2021/04/06 20:29:39;;;;;;;5.38;1.90;;;2.30;92.60;;;;;;4932608;29;20023;-72
2021/04/06 20:32:06;;;;;;;6.95;2.00;;;2.30;92.60;;;;;;4931871;29;20044;-72
2021/04/06 20:34:33;;;;;;;18.08;7.32;;;2.30;92.70;;;;;;4931319;29;20114;-68
2021/04/06 20:36:58;;;;;;;26.70;4.03;;;2.20;92.70;;;;;;4931367;29;20055;-75
2021/04/06 20:39:28;;;;;;;11.63;3.45;;;2.20;92.70;;;;;;4932358;29;20552;-69
2021/04/06 20:41:55;;;;;;;7.43;3.28;;;2.10;92.80;;;;;;4932339;29;20035;-71
2021/04/06 20:44:21;;;;;;;7.50;3.30;;;2.10;92.70;;;;;;4931749;29;20048;-68
2021/04/06 20:46:47;;;;;;;10.52;2.80;;;2.10;92.80;;;;;;4930485;29;20794;-70
2021/04/06 20:49:15;;;;;;;8.50;4.03;;;2.10;92.70;;;;;;4933681;29;20028;-71
2021/04/06 20:51:42;;;;;;;16.83;3.83;;;2.10;92.80;;;;;;4931999;29;20043;-68
2021/04/06 20:54:09;;;;;;;5.30;2.55;;;2.10;92.90;;;;;;4932967;29;20036;-68
2021/04/06 20:56:35;;;;;;;7.55;3.67;;;2.10;92.80;;;;;;4934611;29;20123;-69
2021/04/06 20:59:01;;;;;;;8.45;5.25;;;2.10;92.80;;;;;;4935418;29;20036;-70
2021/04/06 21:01:27;;;;;;;8.02;3.35;;;2.10;92.90;;;;;;4934877;29;20039;-69
2021/04/06 21:03:54;;;;;;;8.00;2.95;;;2.10;93.00;;;;;;4934475;29;20028;-69
2021/04/06 21:06:20;;;;;;;8.25;3.47;;;2.10;93.10;;;;;;4935366;29;20498;-68
2021/04/06 21:08:45;;;;;;;12.25;5.40;;;2.10;93.10;;;;;;4934194;29;20036;-67
2021/04/06 21:11:11;;;;;;;8.10;2.92;;;2.00;93.20;;;;;;4935243;29;20103;-69
2021/04/06 21:13:36;;;;;;;17.27;5.22;;;2.00;93.20;;;;;;4933853;29;20035;-70
2021/04/06 21:16:02;;;;;;;13.00;5.22;;;2.00;93.30;;;;;;4933567;29;20027;-68
2021/04/06 21:18:28;;;;;;;7.88;2.63;;;1.90;93.40;;;;;;4935395;29;20040;-71
2021/04/06 21:20:53;;;;;;;10.35;5.22;;;1.90;93.40;;;;;;4934936;29;20471;-71
2021/04/06 21:23:19;;;;;;;10.25;3.20;;;2.00;93.40;;;;;;4934618;29;20028;-70
2021/04/06 21:25:44;;;;;;;11.60;5.00;;;2.00;93.40;;;;;;4934572;29;20070;-69
2021/04/06 21:28:10;;;;;;;10.27;4.85;;;2.10;93.30;;;;;;4939188;29;20048;-69
2021/04/06 21:30:36;;;;;;;9.43;3.35;;;2.10;93.20;;;;;;4938539;29;20119;-68
2021/04/06 21:33:01;;;;;;;10.52;3.85;;;2.00;93.20;;;;;;4938784;29;20425;-70
2021/04/06 21:35:27;;;;;;;9.30;3.90;;;1.90;93.20;;;;;;4938939;29;20432;-68
2021/04/06 21:37:54;;;;;;;20.27;11.18;;;1.90;93.20;;;;;;4936989;29;20400;-70
2021/04/06 21:40:23;;;;;;;16.52;6.72;;;1.90;93.30;;;;;;4938985;29;20032;-69
2021/04/06 21:42:49;;;;;;;9.43;3.70;;;1.90;93.30;;;;;;4936740;29;20115;-70
2021/04/06 21:45:16;;;;;;;11.93;4.15;;;1.90;93.30;;;;;;4938664;29;20087;-68
2021/04/06 21:47:46;;;;;;;12.55;5.57;;;1.80;93.20;;;;;;4937961;29;20052;-68
2021/04/06 21:50:13;;;;;;;15.95;4.88;;;1.80;93.30;;;;;;4938120;29;20392;-70
2021/04/06 21:52:39;;;;;;;12.32;3.67;;;1.80;93.30;;;;;;4953548;29;20028;-69
2021/04/06 21:55:05;;;;;;;12.13;4.63;;;1.80;93.20;;;;;;4937691;29;20377;-70
2021/04/06 21:57:31;;;;;;;12.10;5.85;;;1.80;93.20;;;;;;4937633;29;20372;-67
2021/04/06 21:59:56;;;;;;;12.13;4.80;;;1.80;93.30;;;;;;4937722;29;20031;-69
2021/04/06 22:02:22;;;;;;;11.02;3.67;;;1.70;93.20;;;;;;4938339;29;20027;-68
2021/04/06 22:04:47;;;;;;;19.80;8.50;;;1.80;93.20;;;;;;4937431;29;20184;-67
2021/04/06 22:07:13;;;;;;;18.83;10.40;;;1.70;93.10;;;;;;4938747;29;20095;-69
2021/04/06 22:09:38;;;;;;;18.27;9.60;;;1.70;93.10;;;;;;4951621;28;20039;-68